createdAt,value
2019-03-15T00:00:55.619Z,1001.12
2019-03-15T00:01:55.547Z,1001.14
2019-03-15T00:02:55.563Z,1001.09
2019-03-15T00:03:55.459Z,1001.15
2019-03-15T00:04:55.439Z,1001.16
2019-03-15T00:05:55.403Z,1001.22
2019-03-15T00:06:55.342Z,1001.24
2019-03-15T00:07:55.284Z,1001.24
2019-03-15T00:08:55.284Z,1001.24
2019-03-15T00:09:55.223Z,1001.22
2019-03-15T00:10:55.197Z,1001.19
2019-03-15T00:11:55.406Z,1001.24
2019-03-15T00:12:55.064Z,1001.25
2019-03-15T00:13:55.047Z,1001.27
2019-03-15T00:14:54.995Z,1001.32
2019-03-15T00:15:55.081Z,1001.33
2019-03-15T00:16:54.934Z,1001.34
2019-03-15T00:17:54.871Z,1001.37
2019-03-15T00:18:54.821Z,1001.36
2019-03-15T00:19:54.775Z,1001.40
2019-03-15T00:20:54.751Z,1001.42
2019-03-15T00:21:54.670Z,1001.45
2019-03-15T00:22:54.645Z,1001.40
2019-03-15T00:23:54.633Z,1001.48
2019-03-15T00:24:54.565Z,1001.49
2019-03-15T00:25:55.534Z,1001.48
2019-03-15T00:26:54.494Z,1001.43
2019-03-15T00:27:54.426Z,1001.36
2019-03-15T00:28:54.418Z,1001.33
2019-03-15T00:29:54.404Z,1001.27
2019-03-15T00:30:54.314Z,1001.33
2019-03-15T00:31:54.266Z,1001.32
2019-03-15T00:32:54.203Z,1001.27
2019-03-15T00:33:54.168Z,1001.35
2019-03-15T00:34:54.155Z,1001.22
2019-03-15T00:35:54.081Z,1001.31
2019-03-15T00:36:54.067Z,1001.37
2019-03-15T00:37:54.003Z,1001.37
2019-03-15T00:38:54.118Z,1001.43
2019-03-15T00:39:53.931Z,1001.38
2019-03-15T00:40:53.869Z,1001.42
2019-03-15T00:41:53.842Z,1001.43
2019-03-15T00:42:53.786Z,1001.43
2019-03-15T00:43:53.725Z,1001.46
2019-03-15T00:44:53.696Z,1001.47
2019-03-15T00:45:53.703Z,1001.48
2019-03-15T00:46:53.619Z,1001.52
2019-03-15T00:47:53.548Z,1001.53
2019-03-15T00:48:53.505Z,1001.61
2019-03-15T00:49:53.473Z,1001.55
2019-03-15T00:50:53.420Z,1001.56
2019-03-15T00:51:53.362Z,1001.57
2019-03-15T00:52:53.377Z,1001.54
2019-03-15T00:53:54.447Z,1001.55
2019-03-15T00:54:53.258Z,1001.52
2019-03-15T00:55:54.083Z,1001.52
2019-03-15T00:56:53.171Z,1001.54
2019-03-15T00:57:53.119Z,1001.52
2019-03-15T00:58:53.104Z,1001.48
2019-03-15T00:59:53.081Z,1001.49
2019-03-15T01:00:53.000Z,1001.48
2019-03-15T01:01:52.954Z,1001.48
2019-03-15T01:02:52.914Z,1001.42
2019-03-15T01:03:52.905Z,1001.43
2019-03-15T01:04:52.837Z,1001.41
2019-03-15T01:05:52.781Z,1001.45
2019-03-15T01:06:52.729Z,1001.49
2019-03-15T01:07:52.687Z,1001.55
2019-03-15T01:08:52.635Z,1001.54
2019-03-15T01:09:52.635Z,1001.50
2019-03-15T01:10:52.555Z,1001.48
2019-03-15T01:11:52.488Z,1001.48
2019-03-15T01:12:52.472Z,1001.48
2019-03-15T01:13:52.466Z,1001.45
2019-03-15T01:14:52.396Z,1001.47
2019-03-15T01:15:52.381Z,1001.39
2019-03-15T01:16:52.293Z,1001.48
2019-03-15T01:17:52.615Z,1001.42
2019-03-15T01:18:52.264Z,1001.38
2019-03-15T01:19:52.193Z,1001.36
2019-03-15T01:20:52.141Z,1001.33
2019-03-15T01:21:52.074Z,1001.38
2019-03-15T01:22:52.033Z,1001.39
2019-03-15T01:23:51.991Z,1001.34
2019-03-15T01:24:51.966Z,1001.39
2019-03-15T01:25:51.922Z,1001.33
2019-03-15T01:26:51.886Z,1001.33
2019-03-15T01:27:51.840Z,1001.30
2019-03-15T01:28:51.754Z,1001.29
2019-03-15T01:29:51.760Z,1001.26
2019-03-15T01:30:51.678Z,1001.25
2019-03-15T01:31:51.683Z,1001.24
2019-03-15T01:32:51.607Z,1001.21
2019-03-15T01:33:51.567Z,1001.24
2019-03-15T01:34:51.524Z,1001.22
2019-03-15T01:35:51.480Z,1001.28
2019-03-15T01:36:51.461Z,1001.30
2019-03-15T01:37:51.387Z,1001.31
2019-03-15T01:38:51.327Z,1001.27
2019-03-15T01:39:51.299Z,1001.28
2019-03-15T01:40:51.270Z,1001.26
2019-03-15T01:41:51.216Z,1001.26
2019-03-15T01:42:51.155Z,1001.30
2019-03-15T01:43:51.118Z,1001.20
2019-03-15T01:44:51.070Z,1001.23
2019-03-15T01:45:51.060Z,1001.22
2019-03-15T01:46:51.023Z,1001.22
2019-03-15T01:47:50.956Z,1001.20
2019-03-15T01:48:50.929Z,1001.18
2019-03-15T01:49:50.858Z,1001.20
2019-03-15T01:50:50.807Z,1001.16
2019-03-15T01:51:50.781Z,1001.19
2019-03-15T01:52:50.782Z,1001.13
2019-03-15T01:53:50.689Z,1001.18
2019-03-15T01:54:50.659Z,1001.18
2019-03-15T01:55:50.615Z,1001.00
2019-03-15T01:56:50.584Z,1001.08
2019-03-15T01:57:50.535Z,1001.09
2019-03-15T01:58:50.482Z,1001.13
2019-03-15T01:59:50.432Z,1001.11
2019-03-15T02:00:50.359Z,1001.03
2019-03-15T02:01:50.341Z,1001.03
2019-03-15T02:02:50.306Z,1001.03
2019-03-15T02:03:50.245Z,1000.99
2019-03-15T02:04:50.223Z,1001.02
2019-03-15T02:05:50.157Z,1001.04
2019-03-15T02:06:50.115Z,1001.01
2019-03-15T02:07:50.056Z,1001.04
2019-03-15T02:08:50.071Z,1001.01
2019-03-15T02:09:49.993Z,1001.03
2019-03-15T02:10:49.930Z,1000.96
2019-03-15T02:11:49.906Z,1001.01
2019-03-15T02:12:49.843Z,1000.96
2019-03-15T02:13:49.828Z,1000.87
2019-03-15T02:14:49.758Z,1000.90
2019-03-15T02:15:49.716Z,1000.99
2019-03-15T02:16:49.675Z,1000.99
2019-03-15T02:17:49.665Z,1000.89
2019-03-15T02:18:49.626Z,1000.97
2019-03-15T02:19:49.529Z,1001.03
2019-03-15T02:20:49.524Z,1001.02
2019-03-15T02:21:49.437Z,1001.02
2019-03-15T02:22:49.434Z,1001.03
2019-03-15T02:23:49.362Z,1001.00
2019-03-15T02:24:49.355Z,1001.01
2019-03-15T02:25:49.291Z,1001.03
2019-03-15T02:26:49.231Z,1000.98
2019-03-15T02:27:49.198Z,1001.00
2019-03-15T02:28:49.142Z,1000.92
2019-03-15T02:29:49.134Z,1000.96
2019-03-15T02:30:49.058Z,1000.94
2019-03-15T02:31:49.019Z,1000.93
2019-03-15T02:32:48.977Z,1000.86
2019-03-15T02:33:48.917Z,1000.93
2019-03-15T02:34:48.925Z,1000.95
2019-03-15T02:35:48.851Z,1001.00
2019-03-15T02:36:48.808Z,1000.99
2019-03-15T02:37:48.766Z,1000.92
2019-03-15T02:38:48.713Z,1000.99
2019-03-15T02:39:48.667Z,1000.98
2019-03-15T02:40:48.656Z,1000.86
2019-03-15T02:41:48.569Z,1000.87
2019-03-15T02:42:48.549Z,1000.86
2019-03-15T02:43:48.502Z,1000.88
2019-03-15T02:44:48.442Z,1000.87
2019-03-15T02:45:48.436Z,1000.89
2019-03-15T02:46:48.382Z,1000.87
2019-03-15T02:47:48.300Z,1000.83
2019-03-15T02:48:48.287Z,1000.80
2019-03-15T02:49:48.236Z,1000.80
2019-03-15T02:50:48.170Z,1000.79
2019-03-15T02:51:48.160Z,1000.74
2019-03-15T02:52:48.291Z,1000.68
2019-03-15T02:53:48.048Z,1000.74
2019-03-15T02:54:48.019Z,1000.78
2019-03-15T02:55:48.482Z,1000.79
2019-03-15T02:56:47.945Z,1000.73
2019-03-15T02:57:47.878Z,1000.73
2019-03-15T02:58:47.853Z,1000.73
2019-03-15T02:59:47.804Z,1000.67
2019-03-15T03:00:47.747Z,1000.71
2019-03-15T03:01:47.745Z,1000.77
2019-03-15T03:02:47.696Z,1000.83
2019-03-15T03:03:47.854Z,1000.85
2019-03-15T03:04:47.566Z,1000.88
2019-03-15T03:05:47.519Z,1000.87
2019-03-15T03:06:47.502Z,1000.87
2019-03-15T03:07:48.201Z,1000.86
2019-03-15T03:08:47.415Z,1000.82
2019-03-15T03:09:47.358Z,1000.85
2019-03-15T03:10:47.302Z,1000.85
2019-03-15T03:11:47.278Z,1000.82
2019-03-15T03:12:47.216Z,1000.81
2019-03-15T03:13:47.164Z,1000.82
2019-03-15T03:14:47.135Z,1000.85
2019-03-15T03:15:47.092Z,1000.84
2019-03-15T03:16:47.304Z,1000.80
2019-03-15T03:17:47.013Z,1000.81
2019-03-15T03:18:46.959Z,1000.81
2019-03-15T03:19:47.008Z,1000.81
2019-03-15T03:20:48.177Z,1000.78
2019-03-15T03:21:46.857Z,1000.81
2019-03-15T03:22:46.771Z,1000.84
2019-03-15T03:23:46.736Z,1000.82
2019-03-15T03:24:46.740Z,1000.79
2019-03-15T03:25:46.668Z,1000.82
2019-03-15T03:26:46.636Z,1000.77
2019-03-15T03:27:46.577Z,1000.73
2019-03-15T03:28:46.516Z,1000.73
2019-03-15T03:29:47.110Z,1000.67
2019-03-15T03:30:47.103Z,1000.57
2019-03-15T03:31:46.425Z,1000.60
2019-03-15T03:32:46.357Z,1000.67
2019-03-15T03:33:46.310Z,1000.62
2019-03-15T03:34:46.303Z,1000.68
2019-03-15T03:35:46.222Z,1000.69
2019-03-15T03:36:46.181Z,1000.69
2019-03-15T03:37:46.183Z,1000.69
2019-03-15T03:38:46.098Z,1000.63
2019-03-15T03:39:46.064Z,1000.60
2019-03-15T03:40:46.007Z,1000.60
2019-03-15T03:41:45.962Z,1000.59
2019-03-15T03:42:45.927Z,1000.62
2019-03-15T03:43:45.857Z,1000.64
2019-03-15T03:44:45.835Z,1000.64
2019-03-15T03:45:45.775Z,1000.64
2019-03-15T03:46:45.742Z,1000.67
2019-03-15T03:47:45.715Z,1000.67
2019-03-15T03:48:45.686Z,1000.63
2019-03-15T03:49:45.617Z,1000.63
2019-03-15T03:50:45.581Z,1000.60
2019-03-15T03:51:45.527Z,1000.56
2019-03-15T03:52:45.478Z,1000.55
2019-03-15T03:53:45.476Z,1000.54
2019-03-15T03:54:45.396Z,1000.54
2019-03-15T03:55:45.372Z,1000.50
2019-03-15T03:56:45.296Z,1000.51
2019-03-15T03:57:45.281Z,1000.47
2019-03-15T03:58:45.258Z,1000.46
2019-03-15T03:59:45.173Z,1000.42
2019-03-15T04:00:45.126Z,1000.39
2019-03-15T04:01:45.131Z,1000.37
2019-03-15T04:02:45.053Z,1000.39
2019-03-15T04:03:45.020Z,1000.45
2019-03-15T04:04:44.941Z,1000.40
2019-03-15T04:05:44.922Z,1000.38
2019-03-15T04:06:44.891Z,1000.31
2019-03-15T04:07:44.835Z,1000.31
2019-03-15T04:08:44.822Z,1000.28
2019-03-15T04:09:44.779Z,1000.31
2019-03-15T04:10:44.722Z,1000.29
2019-03-15T04:11:54.823Z,1000.26
2019-03-15T04:12:44.612Z,1000.26
2019-03-15T04:13:44.566Z,1000.26
2019-03-15T04:14:44.573Z,1000.31
2019-03-15T04:15:44.503Z,1000.31
2019-03-15T04:16:44.450Z,1000.33
2019-03-15T04:17:44.387Z,1000.37
2019-03-15T04:18:44.343Z,1000.39
2019-03-15T04:19:44.334Z,1000.35
2019-03-15T04:20:44.259Z,1000.24
2019-03-15T04:21:44.228Z,1000.26
2019-03-15T04:22:44.170Z,1000.21
2019-03-15T04:23:44.139Z,1000.18
2019-03-15T04:24:44.126Z,1000.20
2019-03-15T04:25:44.060Z,1000.21
2019-03-15T04:26:44.001Z,1000.29
2019-03-15T04:27:43.951Z,1000.34
2019-03-15T04:28:43.932Z,1000.32
2019-03-15T04:29:43.910Z,1000.34
2019-03-15T04:30:43.950Z,1000.33
2019-03-15T04:31:43.783Z,1000.31
2019-03-15T04:32:43.742Z,1000.32
2019-03-15T04:33:43.701Z,1000.32
2019-03-15T04:34:43.647Z,1000.31
2019-03-15T04:35:43.636Z,1000.30
2019-03-15T04:36:43.574Z,1000.31
2019-03-15T04:37:43.526Z,1000.30
2019-03-15T04:38:43.489Z,1000.27
2019-03-15T04:39:43.453Z,1000.32
2019-03-15T04:40:43.428Z,1000.34
2019-03-15T04:41:43.338Z,1000.33
2019-03-15T04:42:43.312Z,1000.28
2019-03-15T04:43:43.276Z,1000.28
2019-03-15T04:44:43.224Z,1000.27
2019-03-15T04:45:43.213Z,1000.25
2019-03-15T04:46:43.128Z,1000.27
2019-03-15T04:47:43.770Z,1000.23
2019-03-15T04:48:43.045Z,1000.22
2019-03-15T04:49:43.165Z,1000.27
2019-03-15T04:50:42.973Z,1000.25
2019-03-15T04:51:42.965Z,1000.19
2019-03-15T04:52:42.873Z,1000.20
2019-03-15T04:53:42.825Z,1000.14
2019-03-15T04:54:42.803Z,1000.18
2019-03-15T04:55:42.733Z,1000.16
2019-03-15T04:56:42.710Z,1000.13
2019-03-15T04:57:42.680Z,1000.14
2019-03-15T04:58:42.613Z,1000.18
2019-03-15T04:59:42.557Z,1000.17
2019-03-15T05:00:42.536Z,1000.20
2019-03-15T05:01:42.497Z,1000.20
2019-03-15T05:02:42.460Z,1000.24
2019-03-15T05:03:42.388Z,1000.19
2019-03-15T05:04:42.345Z,1000.21
2019-03-15T05:05:42.307Z,1000.18
2019-03-15T05:06:42.299Z,1000.19
2019-03-15T05:07:42.239Z,1000.21
2019-03-15T05:08:42.171Z,1000.22
2019-03-15T05:09:42.170Z,1000.18
2019-03-15T05:10:42.103Z,1000.21
2019-03-15T05:11:42.064Z,1000.21
2019-03-15T05:12:41.989Z,1000.23
2019-03-15T05:13:41.964Z,1000.20
2019-03-15T05:14:41.940Z,1000.17
2019-03-15T05:15:41.866Z,1000.21
2019-03-15T05:16:41.868Z,1000.16
2019-03-15T05:17:41.783Z,1000.14
2019-03-15T05:18:41.732Z,1000.16
2019-03-15T05:19:41.676Z,1000.16
2019-03-15T05:20:41.642Z,1000.14
2019-03-15T05:21:41.654Z,1000.14
2019-03-15T05:22:41.586Z,1000.16
2019-03-15T05:23:41.537Z,1000.08
2019-03-15T05:24:41.488Z,1000.08
2019-03-15T05:25:41.440Z,1000.08
2019-03-15T05:26:41.373Z,1000.00
2019-03-15T05:27:41.333Z,1000.02
2019-03-15T05:28:41.291Z,999.92
2019-03-15T05:29:41.282Z,999.92
2019-03-15T05:30:41.222Z,999.88
2019-03-15T05:31:41.158Z,999.89
2019-03-15T05:32:41.139Z,999.86
2019-03-15T05:33:41.103Z,999.84
2019-03-15T05:34:41.059Z,999.79
2019-03-15T05:35:40.995Z,999.80
2019-03-15T05:36:40.947Z,999.78
2019-03-15T05:37:40.934Z,999.78
2019-03-15T05:38:40.849Z,999.76
2019-03-15T05:39:40.848Z,999.69
2019-03-15T05:40:40.776Z,999.69
2019-03-15T05:41:40.729Z,999.69
2019-03-15T05:42:40.704Z,999.70
2019-03-15T05:43:40.636Z,999.69
2019-03-15T05:44:40.605Z,999.64
2019-03-15T05:45:40.592Z,999.64
2019-03-15T05:46:40.528Z,999.66
2019-03-15T05:47:40.472Z,999.62
2019-03-15T05:48:40.456Z,999.65
2019-03-15T05:49:40.378Z,999.68
2019-03-15T05:50:40.939Z,999.67
2019-03-15T05:51:40.287Z,999.67
2019-03-15T05:52:40.248Z,999.65
2019-03-15T05:53:40.227Z,999.64
2019-03-15T05:54:40.187Z,999.61
2019-03-15T05:55:40.128Z,999.61
2019-03-15T05:56:40.076Z,999.59
2019-03-15T05:57:40.080Z,999.60
2019-03-15T05:58:40.021Z,999.61
2019-03-15T05:59:39.936Z,999.59
2019-03-15T06:00:39.910Z,999.61
2019-03-15T06:01:39.863Z,999.60
2019-03-15T06:02:39.822Z,999.55
2019-03-15T06:03:48.308Z,999.56
2019-03-15T06:04:39.726Z,999.54
2019-03-15T06:05:39.709Z,999.54
2019-03-15T06:06:39.658Z,999.54
2019-03-15T06:07:39.596Z,999.56
2019-03-15T06:08:39.585Z,999.54
2019-03-15T06:09:39.552Z,999.53
2019-03-15T06:10:39.474Z,999.50
2019-03-15T06:11:39.432Z,999.56
2019-03-15T06:12:39.374Z,999.54
2019-03-15T06:13:39.365Z,999.54
2019-03-15T06:14:39.320Z,999.52
2019-03-15T06:15:39.254Z,999.49
2019-03-15T06:16:39.209Z,999.48
2019-03-15T06:17:39.167Z,999.45
2019-03-15T06:18:39.124Z,999.47
2019-03-15T06:19:39.104Z,999.46
2019-03-15T06:20:39.033Z,999.44
2019-03-15T06:21:39.005Z,999.40
2019-03-15T06:22:38.959Z,999.38
2019-03-15T06:23:38.907Z,999.41
2019-03-15T06:24:38.853Z,999.41
2019-03-15T06:25:38.851Z,999.35
2019-03-15T06:26:38.797Z,999.32
2019-03-15T06:27:38.736Z,999.29
2019-03-15T06:28:38.690Z,999.31
2019-03-15T06:29:38.640Z,999.28
2019-03-15T06:30:38.619Z,999.28
2019-03-15T06:31:38.569Z,999.30
2019-03-15T06:32:38.513Z,999.28
2019-03-15T06:33:38.479Z,999.29
2019-03-15T06:34:39.620Z,999.29
2019-03-15T06:35:38.378Z,999.35
2019-03-15T06:36:38.363Z,999.29
2019-03-15T06:37:38.300Z,999.28
2019-03-15T06:38:38.271Z,999.30
2019-03-15T06:39:38.215Z,999.29
2019-03-15T06:40:38.170Z,999.28
2019-03-15T06:41:38.160Z,999.28
2019-03-15T06:42:38.083Z,999.36
2019-03-15T06:43:38.031Z,999.36
2019-03-15T06:44:38.095Z,999.39
2019-03-15T06:45:37.949Z,999.35
2019-03-15T06:46:37.932Z,999.33
2019-03-15T06:47:37.876Z,999.32
2019-03-15T06:48:37.816Z,999.29
2019-03-15T06:49:37.772Z,999.31
2019-03-15T06:50:37.743Z,999.28
2019-03-15T06:51:37.711Z,999.24
2019-03-15T06:52:37.655Z,999.16
2019-03-15T06:53:37.600Z,999.23
2019-03-15T06:54:37.554Z,999.24
2019-03-15T06:55:37.523Z,999.18
2019-03-15T06:56:37.491Z,999.24
2019-03-15T06:57:37.466Z,999.16
2019-03-15T06:58:37.400Z,999.18
2019-03-15T06:59:37.440Z,999.17
2019-03-15T07:00:37.347Z,999.16
2019-03-15T07:01:37.297Z,999.15
2019-03-15T07:02:37.259Z,999.22
2019-03-15T07:03:37.227Z,999.14
2019-03-15T07:04:37.214Z,999.09
2019-03-15T07:05:37.089Z,999.06
2019-03-15T07:06:37.048Z,999.03
2019-03-15T07:07:37.004Z,999.01
2019-03-15T07:08:36.948Z,998.98
2019-03-15T07:09:36.908Z,998.90
2019-03-15T07:10:36.905Z,998.89
2019-03-15T07:11:36.858Z,998.89
2019-03-15T07:12:39.853Z,998.88
2019-03-15T07:13:36.791Z,998.88
2019-03-15T07:14:36.699Z,998.85
2019-03-15T07:15:36.814Z,998.88
2019-03-15T07:16:38.179Z,998.86
2019-03-15T07:17:36.569Z,998.86
2019-03-15T07:18:36.547Z,998.89
2019-03-15T07:19:36.490Z,998.89
2019-03-15T07:20:36.443Z,998.87
2019-03-15T07:21:37.031Z,998.85
2019-03-15T07:22:36.339Z,998.86
2019-03-15T07:23:36.332Z,998.87
2019-03-15T07:24:36.258Z,998.90
2019-03-15T07:25:36.216Z,998.89
2019-03-15T07:26:36.192Z,998.88
2019-03-15T07:27:36.122Z,998.80
2019-03-15T07:28:36.076Z,998.83
2019-03-15T07:29:36.039Z,998.78
2019-03-15T07:30:35.998Z,998.73
2019-03-15T07:31:35.963Z,998.73
2019-03-15T07:32:35.930Z,998.67
2019-03-15T07:33:35.898Z,998.57
2019-03-15T07:34:35.827Z,998.59
2019-03-15T07:35:35.789Z,998.59
2019-03-15T07:36:37.237Z,998.57
2019-03-15T07:37:35.730Z,998.56
2019-03-15T07:38:35.679Z,998.55
2019-03-15T07:39:35.590Z,998.48
2019-03-15T07:40:35.559Z,998.42
2019-03-15T07:41:35.513Z,998.38
2019-03-15T07:42:35.509Z,998.35
2019-03-15T07:43:35.449Z,998.33
2019-03-15T07:44:35.401Z,998.28
2019-03-15T07:45:35.334Z,998.27
2019-03-15T07:46:35.285Z,998.23
2019-03-15T07:47:35.247Z,998.28
2019-03-15T07:48:35.255Z,998.26
2019-03-15T07:49:35.160Z,998.30
2019-03-15T07:50:35.127Z,998.25
2019-03-15T07:51:35.104Z,998.28
2019-03-15T07:52:35.028Z,998.23
2019-03-15T07:53:35.535Z,998.26
2019-03-15T07:54:38.153Z,998.27
2019-03-15T07:55:34.914Z,998.28
2019-03-15T07:56:34.873Z,998.26
2019-03-15T07:57:34.812Z,998.25
2019-03-15T07:58:36.128Z,998.26
2019-03-15T07:59:36.534Z,998.22
2019-03-15T08:00:34.677Z,998.19
2019-03-15T08:01:34.639Z,998.19
2019-03-15T08:02:34.627Z,998.22
2019-03-15T08:03:34.984Z,998.24
2019-03-15T08:04:35.948Z,998.26
2019-03-15T08:05:34.509Z,998.23
2019-03-15T08:06:36.248Z,998.22
2019-03-15T08:07:37.368Z,998.24
2019-03-15T08:08:34.389Z,998.24
2019-03-15T08:09:34.298Z,998.24
2019-03-15T08:10:34.273Z,998.27
2019-03-15T08:11:34.225Z,998.26
2019-03-15T08:12:34.200Z,998.19
2019-03-15T08:13:34.121Z,998.29
2019-03-15T08:14:34.115Z,998.27
2019-03-15T08:15:34.064Z,998.23
2019-03-15T08:16:34.614Z,998.21
2019-03-15T08:17:33.971Z,998.15
2019-03-15T08:18:33.914Z,998.20
2019-03-15T08:19:33.856Z,998.17
2019-03-15T08:20:33.864Z,998.17
2019-03-15T08:21:33.770Z,998.16
2019-03-15T08:22:33.741Z,998.17
2019-03-15T08:23:33.694Z,998.09
2019-03-15T08:24:36.562Z,998.11
2019-03-15T08:25:33.641Z,998.14
2019-03-15T08:26:33.590Z,998.10
2019-03-15T08:27:33.511Z,998.16
2019-03-15T08:28:33.491Z,998.13
2019-03-15T08:29:33.443Z,998.14
2019-03-15T08:30:33.394Z,998.12
2019-03-15T08:31:33.334Z,998.10
2019-03-15T08:32:33.463Z,998.19
2019-03-15T08:33:33.249Z,998.15
2019-03-15T08:34:33.230Z,998.16
2019-03-15T08:35:33.165Z,998.20
2019-03-15T08:36:33.188Z,998.27
2019-03-15T08:37:33.077Z,998.23
2019-03-15T08:38:46.222Z,998.20
2019-03-15T08:39:32.993Z,998.17
2019-03-15T08:40:32.977Z,998.19
2019-03-15T08:41:32.958Z,998.17
2019-03-15T08:42:34.660Z,998.18
2019-03-15T08:43:32.838Z,998.14
2019-03-15T08:44:32.788Z,998.14
2019-03-15T08:45:32.758Z,998.19
2019-03-15T08:46:32.764Z,998.19
2019-03-15T08:47:32.683Z,998.19
2019-03-15T08:48:32.613Z,998.19
2019-03-15T08:49:32.559Z,998.20
2019-03-15T08:50:32.501Z,998.22
2019-03-15T08:51:32.528Z,998.19
2019-03-15T08:52:32.440Z,998.18
2019-03-15T08:53:32.405Z,998.21
2019-03-15T08:54:32.372Z,998.19
2019-03-15T08:55:32.441Z,998.23
2019-03-15T08:56:32.426Z,998.19
2019-03-15T08:57:32.210Z,998.20
2019-03-15T08:58:32.281Z,998.18
2019-03-15T08:59:32.158Z,998.20
2019-03-15T09:00:32.160Z,998.18
2019-03-15T09:01:32.060Z,998.19
2019-03-15T09:02:31.998Z,998.19
2019-03-15T09:03:34.362Z,998.13
2019-03-15T09:04:31.923Z,998.14
2019-03-15T09:05:31.892Z,998.14
2019-03-15T09:06:31.925Z,998.15
2019-03-15T09:07:31.843Z,998.15
2019-03-15T09:08:31.739Z,998.18
2019-03-15T09:09:31.703Z,998.20
2019-03-15T09:10:31.682Z,998.20
2019-03-15T09:11:31.668Z,998.17
2019-03-15T09:12:31.611Z,998.18
2019-03-15T09:13:31.597Z,998.16
2019-03-15T09:14:31.504Z,998.18
2019-03-15T09:15:31.428Z,998.17
2019-03-15T09:16:31.441Z,998.16
2019-03-15T09:17:31.361Z,998.20
2019-03-15T09:18:31.362Z,998.14
2019-03-15T09:19:31.362Z,998.15
2019-03-15T09:20:31.226Z,998.13
2019-03-15T09:21:31.193Z,998.20
2019-03-15T09:22:31.152Z,998.21
2019-03-15T09:23:31.089Z,998.20
2019-03-15T09:24:31.333Z,998.23
2019-03-15T09:25:30.999Z,998.19
2019-03-15T09:26:31.013Z,998.20
2019-03-15T09:27:30.996Z,998.17
2019-03-15T09:28:30.900Z,998.20
2019-03-15T09:29:30.903Z,998.17
2019-03-15T09:30:30.852Z,998.15
2019-03-15T09:31:37.225Z,998.21
2019-03-15T09:32:32.200Z,998.19
2019-03-15T09:33:32.771Z,998.18
2019-03-15T09:34:32.964Z,998.22
2019-03-15T09:35:31.206Z,998.18
2019-03-15T09:36:33.825Z,998.19
2019-03-15T09:37:30.507Z,998.15
2019-03-15T09:38:30.476Z,998.12
2019-03-15T09:39:31.857Z,998.14
2019-03-15T09:40:37.753Z,998.14
2019-03-15T09:41:34.280Z,998.11
2019-03-15T09:42:31.262Z,998.21
2019-03-15T09:43:48.274Z,998.17
2019-03-15T09:44:30.223Z,998.05
2019-03-15T09:45:31.351Z,998.12
2019-03-15T09:46:30.116Z,998.03
2019-03-15T09:47:30.097Z,998.07
2019-03-15T09:48:30.017Z,998.05
2019-03-15T09:49:30.045Z,998.00
2019-03-15T09:50:39.887Z,998.03
2019-03-15T09:51:29.931Z,998.04
2019-03-15T09:52:29.984Z,998.07
2019-03-15T09:53:30.975Z,998.07
2019-03-15T09:54:29.758Z,998.07
2019-03-15T09:55:33.283Z,998.11
2019-03-15T09:56:29.924Z,998.04
2019-03-15T09:57:29.641Z,998.11
2019-03-15T09:58:29.585Z,998.14
2019-03-15T09:59:29.589Z,998.14
2019-03-15T10:00:29.518Z,998.16
2019-03-15T10:01:35.175Z,998.09
2019-03-15T10:02:30.793Z,998.13
2019-03-15T10:03:29.428Z,998.17
2019-03-15T10:04:29.342Z,998.12
2019-03-15T10:05:29.328Z,998.21
2019-03-15T10:06:29.272Z,998.10
2019-03-15T10:07:38.276Z,998.14
2019-03-15T10:08:29.207Z,998.16
2019-03-15T10:09:29.139Z,998.19
2019-03-15T10:10:29.107Z,998.14
2019-03-15T10:11:29.074Z,998.16
2019-03-15T10:12:29.024Z,998.17
2019-03-15T10:13:28.971Z,998.22
2019-03-15T10:14:28.979Z,998.21
2019-03-15T10:15:28.964Z,998.15
2019-03-15T10:16:28.837Z,998.15
2019-03-15T10:17:28.801Z,998.10
2019-03-15T10:18:28.766Z,998.21
2019-03-15T10:19:29.880Z,998.20
2019-03-15T10:20:28.703Z,998.19
2019-03-15T10:21:28.724Z,998.17
2019-03-15T10:22:28.590Z,998.15
2019-03-15T10:23:28.546Z,998.25
2019-03-15T10:24:29.258Z,998.26
2019-03-15T10:25:28.505Z,998.24
2019-03-15T10:26:28.418Z,998.20
2019-03-15T10:27:28.423Z,998.32
2019-03-15T10:28:28.329Z,998.31
2019-03-15T10:29:28.416Z,998.29
2019-03-15T10:30:28.249Z,998.28
2019-03-15T10:31:28.239Z,998.29
2019-03-15T10:32:28.167Z,998.31
2019-03-15T10:33:28.128Z,998.31
2019-03-15T10:34:28.090Z,998.33
2019-03-15T10:35:28.080Z,998.32
2019-03-15T10:36:28.028Z,998.37
2019-03-15T10:37:27.962Z,998.33
2019-03-15T10:38:27.932Z,998.41
2019-03-15T10:39:27.885Z,998.42
2019-03-15T10:40:27.843Z,998.38
2019-03-15T10:41:27.815Z,998.44
2019-03-15T10:42:27.744Z,998.40
2019-03-15T10:43:27.728Z,998.48
2019-03-15T10:44:27.676Z,998.47
2019-03-15T10:45:27.674Z,998.52
2019-03-15T10:46:27.588Z,998.50
2019-03-15T10:47:27.776Z,998.53
2019-03-15T10:48:27.558Z,998.51
2019-03-15T10:49:30.628Z,998.57
2019-03-15T10:50:27.521Z,998.51
2019-03-15T10:51:27.385Z,998.51
2019-03-15T10:52:27.377Z,998.57
2019-03-15T10:53:27.306Z,998.57
2019-03-15T10:54:27.258Z,998.54
2019-03-15T10:55:27.220Z,998.55
2019-03-15T10:56:27.192Z,998.56
2019-03-15T10:57:27.229Z,998.59
2019-03-15T10:58:27.112Z,998.55
2019-03-15T10:59:27.059Z,998.60
2019-03-15T11:00:27.001Z,998.58
2019-03-15T11:01:27.009Z,998.67
2019-03-15T11:02:26.912Z,998.55
2019-03-15T11:03:26.876Z,998.66
2019-03-15T11:04:26.844Z,998.63
2019-03-15T11:05:26.814Z,998.62
2019-03-15T11:06:26.793Z,998.57
2019-03-15T11:07:26.712Z,998.64
2019-03-15T11:08:26.721Z,998.63
2019-03-15T11:09:26.626Z,998.66
2019-03-15T11:10:26.583Z,998.55
2019-03-15T11:11:26.566Z,998.63
2019-03-15T11:12:26.492Z,998.64
2019-03-15T11:13:26.503Z,998.67
2019-03-15T11:14:26.435Z,998.67
2019-03-15T11:15:26.387Z,998.81
2019-03-15T11:16:26.342Z,998.80
2019-03-15T11:17:26.369Z,998.81
2019-03-15T11:18:26.247Z,998.71
2019-03-15T11:19:26.196Z,998.77
2019-03-15T11:20:26.162Z,998.77
2019-03-15T11:21:26.133Z,998.84
2019-03-15T11:22:26.142Z,998.93
2019-03-15T11:23:26.046Z,998.86
2019-03-15T11:24:25.991Z,998.86
2019-03-15T11:25:26.015Z,998.88
2019-03-15T11:26:25.960Z,998.90
2019-03-15T11:27:25.942Z,998.92
2019-03-15T11:28:25.865Z,998.96
2019-03-15T11:29:25.831Z,998.94
2019-03-15T11:30:25.751Z,998.92
2019-03-15T11:31:25.749Z,999.02
2019-03-15T11:32:25.677Z,998.99
2019-03-15T11:33:25.640Z,999.01
2019-03-15T11:34:25.588Z,998.78
2019-03-15T11:35:25.556Z,999.00
2019-03-15T11:36:25.551Z,998.99
2019-03-15T11:37:25.487Z,998.92
2019-03-15T11:38:25.441Z,998.96
2019-03-15T11:39:25.379Z,998.97
2019-03-15T11:40:25.374Z,998.86
2019-03-15T11:43:04.547Z,999.00
2019-03-15T11:44:04.493Z,999.06
2019-03-15T11:45:04.456Z,998.89
2019-03-15T11:46:04.428Z,998.99
2019-03-15T11:47:04.414Z,999.05
2019-03-15T11:48:04.685Z,999.04
2019-03-15T11:49:04.295Z,998.96
2019-03-15T11:50:04.282Z,999.03
2019-03-15T11:51:04.281Z,998.97
2019-03-15T11:52:04.184Z,998.97
2019-03-15T11:53:04.116Z,998.97
2019-03-15T11:54:04.076Z,999.05
2019-03-15T11:55:04.032Z,999.06
2019-03-15T11:56:04.003Z,999.01
2019-03-15T11:57:03.983Z,998.95
2019-03-15T11:58:03.931Z,998.96
2019-03-15T11:59:03.868Z,998.86
2019-03-15T12:00:03.835Z,998.97
2019-03-15T12:01:03.824Z,999.05
2019-03-15T12:02:04.525Z,999.03
2019-03-15T12:03:03.712Z,998.91
2019-03-15T12:04:03.664Z,998.97
2019-03-15T12:05:03.620Z,998.92
2019-03-15T12:06:03.606Z,998.95
2019-03-15T12:07:03.543Z,998.93
2019-03-15T12:08:03.504Z,998.89
2019-03-15T12:09:03.466Z,999.01
2019-03-15T12:10:03.419Z,999.00
2019-03-15T12:11:03.383Z,998.95
2019-03-15T12:12:03.371Z,998.88
2019-03-15T12:13:03.287Z,998.98
2019-03-15T12:14:03.258Z,998.87
2019-03-15T12:15:03.238Z,998.94
2019-03-15T12:16:03.164Z,998.98
2019-03-15T12:17:03.145Z,998.91
2019-03-15T12:18:03.083Z,998.95
2019-03-15T12:19:03.139Z,998.88
2019-03-15T12:20:03.029Z,998.94